createdAt,value
2023-05-09T00:00:20.527Z,5.13
2023-05-09T00:02:48.845Z,5.12
2023-05-09T00:05:17.917Z,5.18
2023-05-09T00:07:46.127Z,5.07
2023-05-09T00:10:16.254Z,5.13
2023-05-09T00:12:44.901Z,4.97
2023-05-09T00:15:14.013Z,4.98
2023-05-09T00:17:42.562Z,4.96
2023-05-09T00:20:12.593Z,4.94
2023-05-09T00:22:41.696Z,4.94
2023-05-09T00:25:12.310Z,4.92
2023-05-09T00:27:42.028Z,4.91
2023-05-09T00:30:10.825Z,5.00
2023-05-09T00:32:40.386Z,4.97
2023-05-09T00:35:10.285Z,4.91
2023-05-09T00:37:38.979Z,4.85
2023-05-09T00:40:09.309Z,4.86
2023-05-09T00:42:38.266Z,4.84
2023-05-09T00:45:10.163Z,4.86
2023-05-09T00:47:42.646Z,4.81
2023-05-09T00:50:11.585Z,4.91
2023-05-09T00:52:40.411Z,4.82
2023-05-09T00:55:09.976Z,4.78
2023-05-09T00:57:38.498Z,4.68
2023-05-09T01:00:13.485Z,4.74
2023-05-09T01:02:43.247Z,4.60
2023-05-09T01:05:12.667Z,4.59
2023-05-09T01:07:47.655Z,4.53
2023-05-09T01:10:24.379Z,4.59
2023-05-09T01:13:00.443Z,4.51
2023-05-09T01:15:35.462Z,4.46
2023-05-09T01:18:10.502Z,4.38
2023-05-09T01:20:45.692Z,4.22
2023-05-09T01:23:36.991Z,4.00
2023-05-09T01:26:07.382Z,4.12
2023-05-09T01:28:52.949Z,4.14
2023-05-09T01:31:24.828Z,4.11
2023-05-09T01:33:58.398Z,4.20
2023-05-09T01:36:33.216Z,4.07
2023-05-09T01:39:04.357Z,4.10
2023-05-09T01:41:37.489Z,4.01
2023-05-09T01:44:09.629Z,4.10
2023-05-09T01:46:40.576Z,4.08
2023-05-09T01:49:10.439Z,4.05
2023-05-09T01:51:42.942Z,4.13
2023-05-09T01:54:13.842Z,3.89
2023-05-09T01:56:44.100Z,3.67
2023-05-09T01:59:16.475Z,3.61
2023-05-09T02:01:48.411Z,3.66
2023-05-09T02:04:19.201Z,3.66
2023-05-09T02:06:51.986Z,3.65
2023-05-09T02:09:21.933Z,3.52
2023-05-09T02:11:50.551Z,3.51
2023-05-09T02:14:19.143Z,3.42
2023-05-09T02:16:49.867Z,3.45
2023-05-09T02:19:18.833Z,3.46
2023-05-09T02:21:47.111Z,3.36
2023-05-09T02:24:15.724Z,3.35
2023-05-09T02:26:44.636Z,3.34
2023-05-09T02:29:13.653Z,3.40
2023-05-09T02:31:43.938Z,3.41
2023-05-09T02:34:15.027Z,3.48
2023-05-09T02:36:43.847Z,3.38
2023-05-09T02:39:12.184Z,3.36
2023-05-09T02:41:40.480Z,3.30
2023-05-09T02:44:08.849Z,3.25
2023-05-09T02:46:37.081Z,3.30
2023-05-09T02:49:05.504Z,3.20
2023-05-09T02:51:35.215Z,3.19
2023-05-09T02:54:03.673Z,3.16
2023-05-09T02:56:32.328Z,3.10
2023-05-09T02:59:00.545Z,3.06
2023-05-09T03:01:28.882Z,3.08
2023-05-09T03:03:57.453Z,3.21
2023-05-09T03:06:26.663Z,3.26
2023-05-09T03:08:56.848Z,3.25
2023-05-09T03:11:26.679Z,3.21
2023-05-09T03:13:55.048Z,3.28
2023-05-09T03:16:24.066Z,3.29
2023-05-09T03:18:53.106Z,3.46
2023-05-09T03:21:21.566Z,3.50
2023-05-09T03:23:50.297Z,3.31
2023-05-09T03:26:20.164Z,3.26
2023-05-09T03:28:49.074Z,3.16
2023-05-09T03:31:17.693Z,3.20
2023-05-09T03:33:46.189Z,3.20
2023-05-09T03:36:14.405Z,3.16
2023-05-09T03:38:46.018Z,3.26
2023-05-09T03:41:16.580Z,3.35
2023-05-09T03:43:48.486Z,3.58
2023-05-09T03:46:17.580Z,3.67
2023-05-09T03:48:49.496Z,3.71
2023-05-09T03:51:18.696Z,3.71
2023-05-09T03:53:48.082Z,3.58
2023-05-09T03:56:16.824Z,3.57
2023-05-09T03:58:52.598Z,3.58
2023-05-09T04:01:22.131Z,3.53
2023-05-09T04:03:50.612Z,3.52
2023-05-09T04:06:18.755Z,3.52
2023-05-09T04:08:49.926Z,3.62
2023-05-09T04:11:19.156Z,3.75
2023-05-09T04:13:48.840Z,3.77
2023-05-09T04:16:28.090Z,3.82
2023-05-09T04:18:56.878Z,3.93
2023-05-09T04:21:29.135Z,3.92
2023-05-09T04:24:00.977Z,4.00
2023-05-09T04:26:39.529Z,4.12
2023-05-09T04:29:11.625Z,4.20
2023-05-09T04:31:42.075Z,4.23
2023-05-09T04:34:13.644Z,4.26
2023-05-09T04:36:42.346Z,4.39
2023-05-09T04:39:11.212Z,4.43
2023-05-09T04:41:44.552Z,4.53
2023-05-09T04:44:13.942Z,4.57
2023-05-09T04:46:44.686Z,4.60
2023-05-09T04:49:13.783Z,4.68
2023-05-09T04:51:44.195Z,4.81
2023-05-09T04:54:12.775Z,4.87
2023-05-09T04:56:42.500Z,4.92
2023-05-09T04:59:10.937Z,5.10
2023-05-09T05:01:39.522Z,5.14
2023-05-09T05:04:10.338Z,5.24
2023-05-09T05:06:38.802Z,5.31
2023-05-09T05:09:07.884Z,5.33
2023-05-09T05:11:36.366Z,5.38
2023-05-09T05:14:06.147Z,5.47
2023-05-09T05:17:01.045Z,5.58
2023-05-09T05:19:31.227Z,5.67
2023-05-09T05:22:00.042Z,5.76
2023-05-09T05:24:29.488Z,5.85
2023-05-09T05:26:57.985Z,5.91
2023-05-09T05:29:27.553Z,5.95
2023-05-09T05:31:56.318Z,6.05
2023-05-09T05:34:24.797Z,6.21
2023-05-09T05:36:54.851Z,6.25
2023-05-09T05:39:24.136Z,6.33
2023-05-09T05:41:54.320Z,6.37
2023-05-09T05:44:22.742Z,6.45
2023-05-09T05:46:51.242Z,6.48
2023-05-09T05:49:19.800Z,6.54
2023-05-09T05:51:48.330Z,6.64
2023-05-09T05:54:18.751Z,6.73
2023-05-09T05:56:47.134Z,6.82
2023-05-09T05:59:16.390Z,6.83
2023-05-09T06:01:45.135Z,6.88
2023-05-09T06:04:13.840Z,6.89
2023-05-09T06:06:44.235Z,7.01
2023-05-09T06:09:12.649Z,6.99
2023-05-09T06:11:43.143Z,7.05
2023-05-09T06:14:11.439Z,7.22
2023-05-09T06:16:41.705Z,7.27
2023-05-09T06:19:10.410Z,7.28
2023-05-09T06:21:38.953Z,7.32
2023-05-09T06:24:14.409Z,7.49
2023-05-09T06:26:51.558Z,7.62
2023-05-09T06:29:20.230Z,7.56
2023-05-09T06:31:50.070Z,7.73
2023-05-09T06:34:18.200Z,7.67
2023-05-09T06:36:46.607Z,7.69
2023-05-09T06:39:14.886Z,7.94
2023-05-09T06:41:43.729Z,8.05
2023-05-09T06:44:13.456Z,8.07
2023-05-09T06:46:41.831Z,8.13
2023-05-09T06:49:11.374Z,8.12
2023-05-09T06:51:40.114Z,8.98
2023-05-09T06:54:08.697Z,11.52
2023-05-09T06:56:37.804Z,12.46
2023-05-09T06:59:06.194Z,12.71
2023-05-09T07:01:36.052Z,12.98
2023-05-09T07:04:04.477Z,13.65
2023-05-09T07:06:33.306Z,13.54
2023-05-09T07:09:01.969Z,14.04
2023-05-09T07:11:30.136Z,14.49
2023-05-09T07:13:58.457Z,13.89
2023-05-09T07:16:28.720Z,13.76
2023-05-09T07:18:58.638Z,13.53
2023-05-09T07:21:27.175Z,13.86
2023-05-09T07:23:55.589Z,13.68
2023-05-09T07:26:24.499Z,14.93
2023-05-09T07:28:53.710Z,14.63
2023-05-09T07:31:22.309Z,14.06
2023-05-09T07:33:50.731Z,13.56
2023-05-09T07:36:20.577Z,14.68
2023-05-09T07:38:50.617Z,16.28
2023-05-09T07:41:18.761Z,14.40
2023-05-09T07:43:47.726Z,14.70
2023-05-09T07:46:16.246Z,15.46
2023-05-09T07:48:44.715Z,16.44
2023-05-09T07:51:13.161Z,15.56
2023-05-09T07:53:42.791Z,16.24
2023-05-09T07:56:12.012Z,15.48
2023-05-09T07:58:40.480Z,16.29
2023-05-09T08:01:09.234Z,16.44
2023-05-09T08:03:37.555Z,16.58
2023-05-09T08:06:05.978Z,16.42
2023-05-09T08:08:34.622Z,15.64
2023-05-09T08:11:06.220Z,17.31
2023-05-09T08:13:34.721Z,17.47
2023-05-09T08:16:03.883Z,15.58
2023-05-09T08:18:32.600Z,17.25
2023-05-09T08:21:01.405Z,16.96
2023-05-09T08:23:30.472Z,18.38
2023-05-09T08:25:59.299Z,17.72
2023-05-09T08:28:30.160Z,14.90
2023-05-09T08:30:58.914Z,16.13
2023-05-09T08:33:27.017Z,16.79
2023-05-09T08:35:57.083Z,16.02
2023-05-09T08:38:25.774Z,16.84
2023-05-09T08:40:53.958Z,16.51
2023-05-09T08:43:25.498Z,16.42
2023-05-09T08:46:00.583Z,15.97
2023-05-09T08:48:29.786Z,16.74
2023-05-09T08:50:59.434Z,17.17
2023-05-09T08:53:28.316Z,16.19
2023-05-09T08:55:56.926Z,16.69
2023-05-09T08:58:25.280Z,17.14
2023-05-09T09:00:56.613Z,17.62
2023-05-09T09:03:26.423Z,16.73
2023-05-09T09:05:56.547Z,17.98
2023-05-09T09:08:25.665Z,16.90
2023-05-09T09:10:55.351Z,16.62
2023-05-09T09:13:24.493Z,17.09
2023-05-09T09:15:57.628Z,17.37
2023-05-09T09:18:34.352Z,18.30
2023-05-09T09:21:08.382Z,17.75
2023-05-09T09:23:41.061Z,16.14
2023-05-09T09:26:09.138Z,16.23
2023-05-09T09:28:37.723Z,17.66
2023-05-09T09:31:23.900Z,15.97
2023-05-09T09:33:52.597Z,17.69
2023-05-09T09:36:28.052Z,18.64
2023-05-09T09:39:01.487Z,18.45
2023-05-09T09:41:34.012Z,18.69
2023-05-09T09:44:08.896Z,16.92
2023-05-09T09:46:54.715Z,17.33
2023-05-09T09:49:24.374Z,18.44
2023-05-09T09:52:16.922Z,16.45
2023-05-09T09:54:45.952Z,16.55
2023-05-09T09:57:33.641Z,18.52
2023-05-09T10:00:02.253Z,17.62
2023-05-09T10:02:34.362Z,17.67
2023-05-09T10:05:11.894Z,17.85
2023-05-09T10:07:40.266Z,17.89
2023-05-09T10:10:10.268Z,17.47
2023-05-09T10:12:39.162Z,16.19
2023-05-09T10:15:10.900Z,16.55
2023-05-09T10:17:40.837Z,16.63
2023-05-09T10:20:11.504Z,16.25
2023-05-09T10:22:41.216Z,16.72
2023-05-09T10:25:15.992Z,16.48
2023-05-09T10:27:47.652Z,18.09
2023-05-09T10:30:19.325Z,16.79
2023-05-09T10:32:55.253Z,16.17
2023-05-09T10:35:28.054Z,16.84
2023-05-09T10:37:58.218Z,16.02
2023-05-09T10:40:28.807Z,16.45
2023-05-09T10:42:57.468Z,17.37
2023-05-09T10:45:26.148Z,17.14
2023-05-09T10:47:57.257Z,17.36
2023-05-09T10:50:26.531Z,17.18
2023-05-09T10:53:08.960Z,17.14
2023-05-09T10:55:38.744Z,17.19
2023-05-09T10:58:25.370Z,15.66
2023-05-09T11:00:57.133Z,16.65
2023-05-09T11:03:28.952Z,15.66
2023-05-09T11:05:58.910Z,16.39
2023-05-09T11:08:28.180Z,16.83
2023-05-09T11:11:00.636Z,16.09
2023-05-09T11:13:33.838Z,16.69
2023-05-09T11:16:12.541Z,16.42
2023-05-09T11:18:55.187Z,16.84
2023-05-09T11:21:23.775Z,17.07
2023-05-09T11:23:55.058Z,17.22
2023-05-09T11:26:24.772Z,16.81
2023-05-09T11:28:55.346Z,16.81
2023-05-09T11:31:23.557Z,16.96
2023-05-09T11:33:58.511Z,16.62
2023-05-09T11:36:33.776Z,16.06
2023-05-09T11:39:05.244Z,16.46
2023-05-09T11:41:41.257Z,17.17
2023-05-09T11:44:17.034Z,17.34
2023-05-09T11:46:47.660Z,15.86
2023-05-09T11:49:17.169Z,16.53
2023-05-09T11:51:46.724Z,17.26
2023-05-09T11:54:15.214Z,17.01
2023-05-09T11:56:44.362Z,16.82
2023-05-09T11:59:15.412Z,16.96
2023-05-09T12:01:44.165Z,16.56
2023-05-09T12:04:12.589Z,16.24
2023-05-09T12:06:41.334Z,16.95
2023-05-09T12:09:12.144Z,16.43
2023-05-09T12:11:40.460Z,16.02
2023-05-09T12:14:09.026Z,16.03
2023-05-09T12:16:46.284Z,15.85
2023-05-09T12:19:15.476Z,15.97
2023-05-09T12:21:43.884Z,16.03
2023-05-09T12:24:13.708Z,16.14
2023-05-09T12:26:41.862Z,15.58
2023-05-09T12:29:10.425Z,16.25
2023-05-09T12:31:38.915Z,16.62
2023-05-09T12:34:08.063Z,16.62
2023-05-09T12:36:37.398Z,16.33
2023-05-09T12:39:10.626Z,16.26
2023-05-09T12:42:00.611Z,16.58
2023-05-09T12:44:30.721Z,16.65
2023-05-09T12:47:00.760Z,16.16
2023-05-09T12:49:29.626Z,16.45
2023-05-09T12:52:00.299Z,16.31
2023-05-09T12:54:31.174Z,16.60
2023-05-09T12:57:00.800Z,16.37
2023-05-09T12:59:30.477Z,16.25
2023-05-09T13:02:00.861Z,16.03
2023-05-09T13:04:29.819Z,16.32
2023-05-09T13:07:00.230Z,16.82
2023-05-09T13:09:28.967Z,17.03
2023-05-09T13:11:59.141Z,16.89
2023-05-09T13:14:29.072Z,16.94
2023-05-09T13:16:57.685Z,17.15
2023-05-09T13:19:26.205Z,17.72
2023-05-09T13:21:56.878Z,17.31
2023-05-09T13:24:25.281Z,17.31
2023-05-09T13:26:53.341Z,17.37
2023-05-09T13:29:21.569Z,17.05
2023-05-09T13:31:51.380Z,17.13
2023-05-09T13:34:20.036Z,16.86
2023-05-09T13:36:48.249Z,16.70
2023-05-09T13:39:17.075Z,17.11
2023-05-09T13:41:45.967Z,17.18
2023-05-09T13:44:15.860Z,16.59
2023-05-09T13:46:44.334Z,16.94
2023-05-09T13:49:15.071Z,16.51
2023-05-09T13:51:43.349Z,16.75
2023-05-09T13:54:17.207Z,16.96
2023-05-09T13:56:46.003Z,17.32
2023-05-09T13:59:15.751Z,17.68
2023-05-09T14:01:44.593Z,17.22
2023-05-09T14:04:14.809Z,17.42
2023-05-09T14:06:48.216Z,17.18
2023-05-09T14:09:17.446Z,16.74
2023-05-09T14:11:45.849Z,17.02
2023-05-09T14:14:14.341Z,16.61
2023-05-09T14:16:42.723Z,17.01
2023-05-09T14:19:11.455Z,17.18
2023-05-09T14:21:42.778Z,17.03
2023-05-09T14:24:15.036Z,17.53
2023-05-09T14:26:45.494Z,17.12
2023-05-09T14:29:14.052Z,17.07
2023-05-09T14:31:42.585Z,17.47
2023-05-09T14:34:13.259Z,17.56
2023-05-09T14:36:43.584Z,17.21
2023-05-09T14:39:11.893Z,17.39
2023-05-09T14:41:40.770Z,17.19
2023-05-09T14:44:09.025Z,16.94
2023-05-09T14:46:38.009Z,17.23
2023-05-09T14:49:09.744Z,17.32
2023-05-09T14:51:38.002Z,17.14
2023-05-09T14:54:08.425Z,16.99
2023-05-09T14:56:36.951Z,16.99
2023-05-09T14:59:05.274Z,16.57
2023-05-09T15:01:34.240Z,16.65
2023-05-09T15:04:02.682Z,16.66
2023-05-09T15:06:31.078Z,16.87
2023-05-09T15:08:59.901Z,17.27
2023-05-09T15:11:36.410Z,17.48
2023-05-09T15:14:15.179Z,17.16
2023-05-09T15:16:44.358Z,16.79
2023-05-09T15:19:12.874Z,17.40
2023-05-09T15:21:41.530Z,16.76
2023-05-09T15:24:10.734Z,16.54
2023-05-09T15:26:40.490Z,16.76
2023-05-09T15:29:09.110Z,16.69
2023-05-09T15:31:38.398Z,16.53
2023-05-09T15:34:08.054Z,17.25
2023-05-09T15:36:36.383Z,17.21
2023-05-09T15:39:05.208Z,17.03
2023-05-09T15:41:34.320Z,17.12
2023-05-09T15:44:04.395Z,16.66
2023-05-09T15:46:34.213Z,17.25
2023-05-09T15:49:03.285Z,17.14
2023-05-09T15:51:32.751Z,16.53
2023-05-09T15:54:01.380Z,16.69
2023-05-09T15:56:29.786Z,16.26
2023-05-09T15:58:59.658Z,16.34
2023-05-09T16:01:33.947Z,16.36
2023-05-09T16:04:05.467Z,16.94
2023-05-09T16:06:34.558Z,17.09
2023-05-09T16:09:04.722Z,16.66
2023-05-09T16:11:33.235Z,16.19
2023-05-09T16:14:01.662Z,17.26
2023-05-09T16:16:31.414Z,16.58
2023-05-09T16:19:00.684Z,16.85
2023-05-09T16:21:29.649Z,16.44
2023-05-09T16:23:59.029Z,16.10
2023-05-09T16:26:27.181Z,16.02
2023-05-09T16:28:55.648Z,16.16
2023-05-09T16:31:26.872Z,16.05
2023-05-09T16:33:58.864Z,15.98
2023-05-09T16:36:29.145Z,15.79
2023-05-09T16:38:57.370Z,16.34
2023-05-09T16:41:25.950Z,16.26
2023-05-09T16:43:54.328Z,15.94
2023-05-09T16:46:22.858Z,15.99
2023-05-09T16:48:52.598Z,15.75
2023-05-09T16:51:22.749Z,15.70
2023-05-09T16:53:51.625Z,15.49
2023-05-09T16:56:20.034Z,15.53
2023-05-09T16:58:49.502Z,15.40
2023-05-09T17:01:17.568Z,15.59
2023-05-09T17:03:46.107Z,15.80
2023-05-09T17:06:14.686Z,15.72
2023-05-09T17:08:44.611Z,15.88
2023-05-09T17:11:13.345Z,15.68
2023-05-09T17:13:42.729Z,15.60
2023-05-09T17:16:11.486Z,15.49
2023-05-09T17:18:39.995Z,15.47
2023-05-09T17:21:08.593Z,15.34
2023-05-09T17:23:36.863Z,14.97
2023-05-09T17:26:07.306Z,14.61
2023-05-09T17:28:36.101Z,14.51
2023-05-09T17:31:05.850Z,14.39
2023-05-09T17:33:34.681Z,14.37
2023-05-09T17:36:03.148Z,14.30
2023-05-09T17:38:31.595Z,14.19
2023-05-09T17:41:00.003Z,14.21
2023-05-09T17:43:33.097Z,14.03
2023-05-09T17:46:01.479Z,13.86
2023-05-09T17:48:30.405Z,13.74
2023-05-09T17:50:58.917Z,13.59
2023-05-09T17:53:27.225Z,13.65
2023-05-09T17:55:55.438Z,13.73
2023-05-09T17:58:24.214Z,13.41
2023-05-09T18:00:55.551Z,13.30
2023-05-09T18:03:23.804Z,13.10
2023-05-09T18:05:51.802Z,13.04
2023-05-09T18:08:20.565Z,13.10
2023-05-09T18:10:49.245Z,12.88
2023-05-09T18:13:18.516Z,12.80
2023-05-09T18:15:46.809Z,12.59
2023-05-09T18:18:17.177Z,12.51
2023-05-09T18:20:47.591Z,12.50
2023-05-09T18:23:16.157Z,12.36
2023-05-09T18:25:48.521Z,12.42
2023-05-09T18:28:17.917Z,12.28
2023-05-09T18:30:46.445Z,12.04
2023-05-09T18:33:16.691Z,12.03
2023-05-09T18:35:44.779Z,12.23
2023-05-09T18:38:13.406Z,12.05
2023-05-09T18:40:42.876Z,11.96
2023-05-09T18:43:12.491Z,12.06
2023-05-09T18:45:45.293Z,11.81
2023-05-09T18:48:13.629Z,11.60
2023-05-09T18:50:44.194Z,11.45
2023-05-09T18:53:12.863Z,11.49
2023-05-09T18:55:41.748Z,11.68
2023-05-09T18:58:10.051Z,11.75
2023-05-09T19:00:39.512Z,11.79
2023-05-09T19:03:08.015Z,11.66
2023-05-09T19:05:36.485Z,11.41
2023-05-09T19:08:06.751Z,11.42
2023-05-09T19:10:36.661Z,11.54
2023-05-09T19:13:08.458Z,11.35
2023-05-09T19:15:37.412Z,11.60
2023-05-09T19:18:06.242Z,11.57
2023-05-09T19:20:34.617Z,11.43
2023-05-09T19:23:03.182Z,11.25
2023-05-09T19:25:34.076Z,11.02
2023-05-09T19:28:02.979Z,11.10
2023-05-09T19:30:31.612Z,11.01
2023-05-09T19:32:59.833Z,11.04
2023-05-09T19:35:28.581Z,11.23
2023-05-09T19:37:56.978Z,11.40
2023-05-09T19:40:25.383Z,11.32
2023-05-09T19:42:55.728Z,11.17
2023-05-09T19:45:25.077Z,11.09
2023-05-09T19:47:55.869Z,11.01
2023-05-09T19:50:27.996Z,11.02
2023-05-09T19:52:57.205Z,10.92
2023-05-09T19:55:31.089Z,10.92
2023-05-09T19:58:01.107Z,10.73
2023-05-09T20:00:29.545Z,10.82
2023-05-09T20:02:58.013Z,10.67
2023-05-09T20:05:26.618Z,10.70
2023-05-09T20:07:54.905Z,10.64
2023-05-09T20:10:23.278Z,10.56
2023-05-09T20:12:53.122Z,10.62
2023-05-09T20:15:23.494Z,10.51
2023-05-09T20:17:52.159Z,10.49
2023-05-09T20:20:20.633Z,10.36
2023-05-09T20:22:49.661Z,10.22
2023-05-09T20:25:18.668Z,10.11
2023-05-09T20:27:47.497Z,10.13
2023-05-09T20:30:17.487Z,10.07
2023-05-09T20:32:48.319Z,10.05
2023-05-09T20:36:09.803Z,10.17
2023-05-09T20:38:39.136Z,9.99
2023-05-09T20:41:07.718Z,10.24
2023-05-09T20:43:36.474Z,10.14
2023-05-09T20:46:04.830Z,9.97
2023-05-09T20:48:34.858Z,10.03
2023-05-09T20:51:02.978Z,10.35
2023-05-09T20:53:32.541Z,10.32
2023-05-09T20:56:01.329Z,10.31
2023-05-09T20:58:31.726Z,10.16
2023-05-09T21:01:00.259Z,10.35
2023-05-09T21:03:28.758Z,10.22
2023-05-09T21:05:59.590Z,10.28
2023-05-09T21:08:28.043Z,10.39
2023-05-09T21:10:56.410Z,10.25
2023-05-09T21:13:24.933Z,10.30
2023-05-09T21:15:53.405Z,10.24
2023-05-09T21:18:22.316Z,10.15
2023-05-09T21:20:50.689Z,10.30
2023-05-09T21:23:20.589Z,10.13
2023-05-09T21:25:48.741Z,10.15
2023-05-09T21:28:17.423Z,10.32
2023-05-09T21:30:53.394Z,10.15
2023-05-09T21:33:21.979Z,10.07
2023-05-09T21:35:51.137Z,10.01
2023-05-09T21:38:21.090Z,10.01
2023-05-09T21:40:51.458Z,9.92
2023-05-09T21:43:20.477Z,10.12
2023-05-09T21:45:48.576Z,9.90
2023-05-09T21:48:16.621Z,9.85
2023-05-09T21:50:46.124Z,9.76
2023-05-09T21:53:14.921Z,10.12
2023-05-09T21:55:44.606Z,10.10
2023-05-09T21:58:12.774Z,10.03
2023-05-09T22:00:42.075Z,10.01
2023-05-09T22:03:10.958Z,9.81
2023-05-09T22:05:39.385Z,9.76
2023-05-09T22:08:07.776Z,9.85
2023-05-09T22:10:38.085Z,9.80
2023-05-09T22:13:08.004Z,9.91
2023-05-09T22:15:36.165Z,9.93
2023-05-09T22:18:04.576Z,9.93
2023-05-09T22:20:33.316Z,9.85
2023-05-09T22:23:01.805Z,9.93
2023-05-09T22:25:29.899Z,9.97
2023-05-09T22:27:58.250Z,9.79
2023-05-09T22:30:28.063Z,9.73
2023-05-09T22:32:56.277Z,9.82
2023-05-09T22:35:25.096Z,9.86
2023-05-09T22:37:53.888Z,9.86
2023-05-09T22:40:22.002Z,9.84
2023-05-09T22:42:50.286Z,9.89
2023-05-09T22:45:19.846Z,9.74
2023-05-09T22:47:50.338Z,9.98
2023-05-09T22:50:19.251Z,10.02
2023-05-09T22:52:47.581Z,9.91
2023-05-09T22:55:15.747Z,9.86
2023-05-09T22:57:44.605Z,9.85
2023-05-09T23:00:14.712Z,9.97
2023-05-09T23:02:43.304Z,9.96
2023-05-09T23:05:13.125Z,9.99
2023-05-09T23:07:41.279Z,10.04
2023-05-09T23:10:09.955Z,9.97
2023-05-09T23:12:38.402Z,9.83
2023-05-09T23:15:10.089Z,9.77
2023-05-09T23:17:38.569Z,9.75
2023-05-09T23:20:07.931Z,9.73
2023-05-09T23:22:37.683Z,9.67
2023-05-09T23:25:07.301Z,9.94
2023-05-09T23:27:35.532Z,9.76
2023-05-09T23:30:03.773Z,9.77
2023-05-09T23:32:32.331Z,9.68
2023-05-09T23:35:00.962Z,9.65
2023-05-09T23:37:29.729Z,9.86
2023-05-09T23:39:59.390Z,9.79
2023-05-09T23:42:27.676Z,9.75
2023-05-09T23:44:56.043Z,9.70
2023-05-09T23:47:24.514Z,9.67
2023-05-09T23:49:53.301Z,9.58
2023-05-09T23:52:21.579Z,9.61
2023-05-09T23:54:50.375Z,9.44
2023-05-09T23:57:19.913Z,9.70
2023-05-09T23:59:48.526Z,9.64
